sensor_id;sensor_type;location;lat;lon;timestamp;P1;durP1;ratioP1;P2;durP2;ratioP2
20067;SDS011;10194;50.824;7.134;2023-02-28T00:00:28;248.07;;;228.00;;
20067;SDS011;10194;50.824;7.134;2023-02-28T00:02:54;251.43;;;231.10;;
20067;SDS011;10194;50.824;7.134;2023-02-28T00:05:20;251.33;;;231.17;;
20067;SDS011;10194;50.824;7.134;2023-02-28T00:07:48;257.03;;;236.53;;
20067;SDS011;10194;50.824;7.134;2023-02-28T00:13:09;250.67;;;230.13;;
20067;SDS011;10194;50.824;7.134;2023-02-28T00:15:35;256.23;;;235.53;;
20067;SDS011;10194;50.824;7.134;2023-02-28T00:18:01;252.90;;;232.77;;
20067;SDS011;10194;50.824;7.134;2023-02-28T00:20:28;253.60;;;232.60;;
20067;SDS011;10194;50.824;7.134;2023-02-28T00:22:54;250.27;;;229.83;;
20067;SDS011;10194;50.824;7.134;2023-02-28T00:25:21;249.43;;;229.20;;
20067;SDS011;10194;50.824;7.134;2023-02-28T00:27:50;248.57;;;228.30;;
20067;SDS011;10194;50.824;7.134;2023-02-28T00:30:18;252.80;;;232.17;;
20067;SDS011;10194;50.824;7.134;2023-02-28T00:32:46;243.47;;;223.57;;
20067;SDS011;10194;50.824;7.134;2023-02-28T00:35:13;242.57;;;222.83;;
20067;SDS011;10194;50.824;7.134;2023-02-28T00:37:39;254.57;;;234.27;;
20067;SDS011;10194;50.824;7.134;2023-02-28T00:40:06;247.90;;;227.33;;
20067;SDS011;10194;50.824;7.134;2023-02-28T00:42:34;250.90;;;230.43;;
20067;SDS011;10194;50.824;7.134;2023-02-28T00:45:00;247.73;;;227.43;;
20067;SDS011;10194;50.824;7.134;2023-02-28T00:47:29;247.70;;;227.57;;
20067;SDS011;10194;50.824;7.134;2023-02-28T00:49:55;252.37;;;231.90;;
20067;SDS011;10194;50.824;7.134;2023-02-28T00:52:21;243.73;;;223.40;;
20067;SDS011;10194;50.824;7.134;2023-02-28T00:54:48;249.93;;;229.53;;
20067;SDS011;10194;50.824;7.134;2023-02-28T00:57:13;245.40;;;225.33;;
20067;SDS011;10194;50.824;7.134;2023-02-28T00:59:39;249.10;;;228.83;;
20067;SDS011;10194;50.824;7.134;2023-02-28T01:02:05;248.70;;;228.47;;
20067;SDS011;10194;50.824;7.134;2023-02-28T01:04:31;249.40;;;229.20;;
20067;SDS011;10194;50.824;7.134;2023-02-28T01:06:57;250.80;;;230.60;;
20067;SDS011;10194;50.824;7.134;2023-02-28T01:09:22;246.50;;;226.57;;
20067;SDS011;10194;50.824;7.134;2023-02-28T01:11:48;251.60;;;231.20;;
20067;SDS011;10194;50.824;7.134;2023-02-28T01:14:14;249.03;;;229.00;;
20067;SDS011;10194;50.824;7.134;2023-02-28T01:16:42;249.37;;;229.07;;
20067;SDS011;10194;50.824;7.134;2023-02-28T01:19:08;253.67;;;233.40;;
20067;SDS011;10194;50.824;7.134;2023-02-28T01:21:33;247.47;;;227.30;;
20067;SDS011;10194;50.824;7.134;2023-02-28T01:24:00;251.30;;;231.00;;
20067;SDS011;10194;50.824;7.134;2023-02-28T01:26:27;245.50;;;225.63;;
20067;SDS011;10194;50.824;7.134;2023-02-28T01:28:53;244.67;;;224.67;;
20067;SDS011;10194;50.824;7.134;2023-02-28T01:31:20;247.13;;;227.20;;
20067;SDS011;10194;50.824;7.134;2023-02-28T01:33:47;248.33;;;228.07;;
20067;SDS011;10194;50.824;7.134;2023-02-28T01:36:17;250.17;;;230.10;;
20067;SDS011;10194;50.824;7.134;2023-02-28T01:38:46;251.23;;;230.97;;
20067;SDS011;10194;50.824;7.134;2023-02-28T01:41:15;249.70;;;229.60;;
20067;SDS011;10194;50.824;7.134;2023-02-28T01:44:00;242.47;;;222.57;;
20067;SDS011;10194;50.824;7.134;2023-02-28T01:46:33;250.13;;;229.63;;
20067;SDS011;10194;50.824;7.134;2023-02-28T01:49:09;243.90;;;223.97;;
20067;SDS011;10194;50.824;7.134;2023-02-28T01:51:48;246.90;;;226.60;;
20067;SDS011;10194;50.824;7.134;2023-02-28T01:54:24;246.10;;;225.87;;
20067;SDS011;10194;50.824;7.134;2023-02-28T01:56:57;248.80;;;228.50;;
20067;SDS011;10194;50.824;7.134;2023-02-28T01:59:31;248.23;;;227.73;;
20067;SDS011;10194;50.824;7.134;2023-02-28T02:02:03;249.63;;;229.53;;
20067;SDS011;10194;50.824;7.134;2023-02-28T02:04:34;252.87;;;232.00;;
20067;SDS011;10194;50.824;7.134;2023-02-28T02:07:05;251.17;;;230.80;;
20067;SDS011;10194;50.824;7.134;2023-02-28T02:09:32;251.10;;;230.67;;
20067;SDS011;10194;50.824;7.134;2023-02-28T02:11:57;248.63;;;228.63;;
20067;SDS011;10194;50.824;7.134;2023-02-28T02:14:51;251.33;;;231.07;;
20067;SDS011;10194;50.824;7.134;2023-02-28T02:17:43;244.10;;;223.87;;
20067;SDS011;10194;50.824;7.134;2023-02-28T02:27:03;252.70;;;231.97;;
20067;SDS011;10194;50.824;7.134;2023-02-28T02:32:59;253.63;;;232.97;;
20067;SDS011;10194;50.824;7.134;2023-02-28T02:39:06;250.30;;;229.77;;
20067;SDS011;10194;50.824;7.134;2023-02-28T02:41:54;252.70;;;231.63;;
20067;SDS011;10194;50.824;7.134;2023-02-28T02:44:30;251.37;;;230.43;;
20067;SDS011;10194;50.824;7.134;2023-02-28T02:47:06;253.87;;;232.57;;
20067;SDS011;10194;50.824;7.134;2023-02-28T02:49:37;254.00;;;232.90;;
20067;SDS011;10194;50.824;7.134;2023-02-28T02:52:08;252.37;;;231.20;;
20067;SDS011;10194;50.824;7.134;2023-02-28T02:54:38;252.77;;;231.60;;
20067;SDS011;10194;50.824;7.134;2023-02-28T02:57:15;249.97;;;229.27;;
20067;SDS011;10194;50.824;7.134;2023-02-28T02:59:48;245.90;;;225.43;;
20067;SDS011;10194;50.824;7.134;2023-02-28T03:02:16;252.10;;;231.07;;
20067;SDS011;10194;50.824;7.134;2023-02-28T03:04:46;254.23;;;233.60;;
20067;SDS011;10194;50.824;7.134;2023-02-28T03:07:18;249.53;;;228.87;;
20067;SDS011;10194;50.824;7.134;2023-02-28T03:09:54;241.53;;;220.77;;
20067;SDS011;10194;50.824;7.134;2023-02-28T03:12:22;248.80;;;228.07;;
20067;SDS011;10194;50.824;7.134;2023-02-28T03:15:18;256.63;;;235.43;;
20067;SDS011;10194;50.824;7.134;2023-02-28T03:20:33;248.93;;;228.07;;
20067;SDS011;10194;50.824;7.134;2023-02-28T03:23:23;244.00;;;223.33;;
20067;SDS011;10194;50.824;7.134;2023-02-28T03:26:31;250.07;;;229.63;;
20067;SDS011;10194;50.824;7.134;2023-02-28T03:29:15;245.60;;;225.10;;
20067;SDS011;10194;50.824;7.134;2023-02-28T03:31:58;257.67;;;236.40;;
20067;SDS011;10194;50.824;7.134;2023-02-28T03:34:39;250.27;;;229.80;;
20067;SDS011;10194;50.824;7.134;2023-02-28T03:37:15;251.87;;;230.77;;
20067;SDS011;10194;50.824;7.134;2023-02-28T03:39:53;256.07;;;234.63;;
20067;SDS011;10194;50.824;7.134;2023-02-28T03:42:27;251.70;;;230.87;;
20067;SDS011;10194;50.824;7.134;2023-02-28T03:44:59;253.00;;;231.93;;
20067;SDS011;10194;50.824;7.134;2023-02-28T03:50:19;255.20;;;234.20;;
20067;SDS011;10194;50.824;7.134;2023-02-28T03:52:51;258.30;;;236.60;;
20067;SDS011;10194;50.824;7.134;2023-02-28T03:55:37;257.87;;;237.40;;
20067;SDS011;10194;50.824;7.134;2023-02-28T04:01:12;249.83;;;229.53;;
20067;SDS011;10194;50.824;7.134;2023-02-28T04:04:00;254.40;;;234.53;;
20067;SDS011;10194;50.824;7.134;2023-02-28T04:06:27;256.67;;;235.97;;
20067;SDS011;10194;50.824;7.134;2023-02-28T04:08:56;245.43;;;224.53;;
20067;SDS011;10194;50.824;7.134;2023-02-28T04:11:24;249.33;;;228.57;;
20067;SDS011;10194;50.824;7.134;2023-02-28T04:14:02;258.30;;;237.67;;
20067;SDS011;10194;50.824;7.134;2023-02-28T04:16:29;254.17;;;233.37;;
20067;SDS011;10194;50.824;7.134;2023-02-28T04:18:57;260.03;;;238.97;;
20067;SDS011;10194;50.824;7.134;2023-02-28T04:21:30;250.17;;;229.30;;
20067;SDS011;10194;50.824;7.134;2023-02-28T04:24:02;249.53;;;228.93;;
20067;SDS011;10194;50.824;7.134;2023-02-28T04:26:29;249.37;;;228.47;;
20067;SDS011;10194;50.824;7.134;2023-02-28T04:28:59;253.73;;;232.83;;
20067;SDS011;10194;50.824;7.134;2023-02-28T04:31:27;251.30;;;230.43;;
20067;SDS011;10194;50.824;7.134;2023-02-28T04:33:53;255.00;;;234.00;;
20067;SDS011;10194;50.824;7.134;2023-02-28T04:36:19;250.23;;;229.37;;
20067;SDS011;10194;50.824;7.134;2023-02-28T04:38:45;251.90;;;231.00;;
20067;SDS011;10194;50.824;7.134;2023-02-28T04:41:12;251.43;;;230.50;;
20067;SDS011;10194;50.824;7.134;2023-02-28T04:43:38;262.30;;;240.77;;
20067;SDS011;10194;50.824;7.134;2023-02-28T04:46:04;251.07;;;230.17;;
20067;SDS011;10194;50.824;7.134;2023-02-28T04:48:31;250.40;;;229.70;;
20067;SDS011;10194;50.824;7.134;2023-02-28T04:53:38;261.70;;;240.10;;
20067;SDS011;10194;50.824;7.134;2023-02-28T04:56:05;257.80;;;236.73;;
20067;SDS011;10194;50.824;7.134;2023-02-28T04:58:32;260.27;;;238.87;;
20067;SDS011;10194;50.824;7.134;2023-02-28T05:01:07;252.90;;;232.27;;
20067;SDS011;10194;50.824;7.134;2023-02-28T05:03:45;255.60;;;234.67;;
20067;SDS011;10194;50.824;7.134;2023-02-28T05:06:12;253.83;;;232.90;;
20067;SDS011;10194;50.824;7.134;2023-02-28T05:08:39;254.53;;;233.60;;
20067;SDS011;10194;50.824;7.134;2023-02-28T05:11:19;259.93;;;238.90;;
20067;SDS011;10194;50.824;7.134;2023-02-28T05:13:59;261.17;;;239.90;;
20067;SDS011;10194;50.824;7.134;2023-02-28T05:16:30;255.40;;;234.40;;
20067;SDS011;10194;50.824;7.134;2023-02-28T05:18:57;260.93;;;239.53;;
20067;SDS011;10194;50.824;7.134;2023-02-28T05:21:33;253.57;;;232.87;;
20067;SDS011;10194;50.824;7.134;2023-02-28T05:24:03;258.00;;;236.87;;
20067;SDS011;10194;50.824;7.134;2023-02-28T05:26:34;266.80;;;245.33;;
20067;SDS011;10194;50.824;7.134;2023-02-28T05:29:01;262.93;;;241.60;;
20067;SDS011;10194;50.824;7.134;2023-02-28T05:31:27;267.73;;;246.00;;
20067;SDS011;10194;50.824;7.134;2023-02-28T05:33:53;263.47;;;241.83;;
20067;SDS011;10194;50.824;7.134;2023-02-28T05:36:19;260.47;;;239.23;;
20067;SDS011;10194;50.824;7.134;2023-02-28T05:38:46;260.47;;;238.73;;
20067;SDS011;10194;50.824;7.134;2023-02-28T05:41:13;260.40;;;239.23;;
20067;SDS011;10194;50.824;7.134;2023-02-28T05:43:39;263.87;;;242.93;;
20067;SDS011;10194;50.824;7.134;2023-02-28T05:46:06;263.47;;;241.67;;
20067;SDS011;10194;50.824;7.134;2023-02-28T05:48:34;253.77;;;233.00;;
20067;SDS011;10194;50.824;7.134;2023-02-28T05:51:02;259.83;;;238.67;;
20067;SDS011;10194;50.824;7.134;2023-02-28T05:53:29;255.73;;;234.93;;
20067;SDS011;10194;50.824;7.134;2023-02-28T05:55:55;258.37;;;237.23;;
20067;SDS011;10194;50.824;7.134;2023-02-28T05:58:22;257.57;;;236.60;;
20067;SDS011;10194;50.824;7.134;2023-02-28T06:00:48;253.67;;;232.80;;
20067;SDS011;10194;50.824;7.134;2023-02-28T06:03:14;259.10;;;238.13;;
20067;SDS011;10194;50.824;7.134;2023-02-28T06:05:40;264.40;;;243.17;;
20067;SDS011;10194;50.824;7.134;2023-02-28T06:08:06;259.60;;;238.67;;
20067;SDS011;10194;50.824;7.134;2023-02-28T06:10:33;255.03;;;234.50;;
20067;SDS011;10194;50.824;7.134;2023-02-28T06:13:00;254.07;;;233.70;;
20067;SDS011;10194;50.824;7.134;2023-02-28T06:15:27;260.33;;;239.57;;
20067;SDS011;10194;50.824;7.134;2023-02-28T06:17:54;257.60;;;236.97;;
20067;SDS011;10194;50.824;7.134;2023-02-28T06:20:21;253.70;;;233.47;;
20067;SDS011;10194;50.824;7.134;2023-02-28T06:22:48;257.83;;;237.20;;
20067;SDS011;10194;50.824;7.134;2023-02-28T06:25:16;249.70;;;229.13;;
20067;SDS011;10194;50.824;7.134;2023-02-28T06:27:42;262.03;;;241.07;;
20067;SDS011;10194;50.824;7.134;2023-02-28T06:30:09;259.63;;;238.57;;
20067;SDS011;10194;50.824;7.134;2023-02-28T06:32:36;265.00;;;243.90;;
20067;SDS011;10194;50.824;7.134;2023-02-28T06:35:02;262.80;;;241.83;;
20067;SDS011;10194;50.824;7.134;2023-02-28T06:37:28;263.53;;;242.23;;
20067;SDS011;10194;50.824;7.134;2023-02-28T06:39:57;257.83;;;236.53;;
20067;SDS011;10194;50.824;7.134;2023-02-28T06:42:23;262.03;;;241.03;;
20067;SDS011;10194;50.824;7.134;2023-02-28T06:44:54;259.33;;;238.20;;
20067;SDS011;10194;50.824;7.134;2023-02-28T06:47:20;250.00;;;229.60;;
20067;SDS011;10194;50.824;7.134;2023-02-28T06:49:47;256.43;;;235.50;;
20067;SDS011;10194;50.824;7.134;2023-02-28T06:52:13;264.07;;;242.80;;
20067;SDS011;10194;50.824;7.134;2023-02-28T06:54:39;257.87;;;236.77;;
20067;SDS011;10194;50.824;7.134;2023-02-28T06:57:06;258.73;;;237.70;;
20067;SDS011;10194;50.824;7.134;2023-02-28T06:59:31;258.57;;;237.47;;
20067;SDS011;10194;50.824;7.134;2023-02-28T07:01:57;260.60;;;239.60;;
20067;SDS011;10194;50.824;7.134;2023-02-28T07:04:23;263.83;;;242.53;;
20067;SDS011;10194;50.824;7.134;2023-02-28T07:06:49;261.50;;;240.40;;
20067;SDS011;10194;50.824;7.134;2023-02-28T07:09:15;254.27;;;233.13;;
20067;SDS011;10194;50.824;7.134;2023-02-28T07:11:41;259.10;;;237.77;;
20067;SDS011;10194;50.824;7.134;2023-02-28T07:14:08;258.07;;;236.70;;
20067;SDS011;10194;50.824;7.134;2023-02-28T07:16:34;257.93;;;236.70;;
20067;SDS011;10194;50.824;7.134;2023-02-28T07:19:00;255.03;;;233.67;;
20067;SDS011;10194;50.824;7.134;2023-02-28T07:21:26;251.10;;;230.23;;
20067;SDS011;10194;50.824;7.134;2023-02-28T07:23:52;259.07;;;237.60;;
20067;SDS011;10194;50.824;7.134;2023-02-28T07:26:18;260.10;;;238.87;;
20067;SDS011;10194;50.824;7.134;2023-02-28T07:28:45;256.83;;;235.73;;
20067;SDS011;10194;50.824;7.134;2023-02-28T07:31:13;257.73;;;236.80;;
20067;SDS011;10194;50.824;7.134;2023-02-28T07:33:39;263.27;;;242.37;;
20067;SDS011;10194;50.824;7.134;2023-02-28T07:36:07;276.43;;;254.80;;
20067;SDS011;10194;50.824;7.134;2023-02-28T07:38:41;273.97;;;252.67;;
20067;SDS011;10194;50.824;7.134;2023-02-28T07:41:08;283.57;;;261.33;;
20067;SDS011;10194;50.824;7.134;2023-02-28T07:43:35;292.00;;;269.80;;
20067;SDS011;10194;50.824;7.134;2023-02-28T07:46:04;287.97;;;266.00;;
20067;SDS011;10194;50.824;7.134;2023-02-28T07:48:36;289.77;;;267.67;;
20067;SDS011;10194;50.824;7.134;2023-02-28T07:51:03;290.73;;;268.13;;
20067;SDS011;10194;50.824;7.134;2023-02-28T07:53:29;288.37;;;266.37;;
20067;SDS011;10194;50.824;7.134;2023-02-28T07:55:59;282.10;;;260.47;;
20067;SDS011;10194;50.824;7.134;2023-02-28T07:58:27;285.07;;;262.97;;
20067;SDS011;10194;50.824;7.134;2023-02-28T08:00:54;278.27;;;256.50;;
20067;SDS011;10194;50.824;7.134;2023-02-28T08:03:21;281.80;;;259.67;;
20067;SDS011;10194;50.824;7.134;2023-02-28T08:05:48;278.97;;;257.43;;
20067;SDS011;10194;50.824;7.134;2023-02-28T08:08:15;272.63;;;251.37;;
20067;SDS011;10194;50.824;7.134;2023-02-28T08:10:42;270.20;;;249.07;;
20067;SDS011;10194;50.824;7.134;2023-02-28T08:13:08;274.40;;;252.37;;
20067;SDS011;10194;50.824;7.134;2023-02-28T08:15:34;279.03;;;257.27;;
20067;SDS011;10194;50.824;7.134;2023-02-28T08:17:59;268.10;;;246.77;;
20067;SDS011;10194;50.824;7.134;2023-02-28T08:20:26;251.30;;;230.90;;
20067;SDS011;10194;50.824;7.134;2023-02-28T08:22:52;254.33;;;234.13;;
20067;SDS011;10194;50.824;7.134;2023-02-28T08:25:18;261.40;;;241.00;;
20067;SDS011;10194;50.824;7.134;2023-02-28T08:27:44;267.60;;;246.60;;
20067;SDS011;10194;50.824;7.134;2023-02-28T08:30:11;280.97;;;259.33;;
20067;SDS011;10194;50.824;7.134;2023-02-28T08:32:38;280.10;;;258.80;;
20067;SDS011;10194;50.824;7.134;2023-02-28T08:35:05;279.97;;;258.30;;
20067;SDS011;10194;50.824;7.134;2023-02-28T08:37:32;280.13;;;258.53;;
20067;SDS011;10194;50.824;7.134;2023-02-28T08:39:57;280.23;;;258.50;;
20067;SDS011;10194;50.824;7.134;2023-02-28T08:42:23;282.57;;;261.20;;
20067;SDS011;10194;50.824;7.134;2023-02-28T08:44:49;281.17;;;259.73;;
20067;SDS011;10194;50.824;7.134;2023-02-28T08:47:15;282.20;;;260.60;;
20067;SDS011;10194;50.824;7.134;2023-02-28T08:49:41;280.87;;;259.37;;
20067;SDS011;10194;50.824;7.134;2023-02-28T08:52:07;278.50;;;257.00;;
20067;SDS011;10194;50.824;7.134;2023-02-28T08:54:32;282.63;;;261.00;;
20067;SDS011;10194;50.824;7.134;2023-02-28T08:56:59;278.70;;;257.07;;
20067;SDS011;10194;50.824;7.134;2023-02-28T08:59:25;283.23;;;261.67;;
20067;SDS011;10194;50.824;7.134;2023-02-28T09:01:51;282.67;;;260.90;;
20067;SDS011;10194;50.824;7.134;2023-02-28T09:04:16;281.70;;;260.00;;
20067;SDS011;10194;50.824;7.134;2023-02-28T09:06:42;282.50;;;260.43;;
20067;SDS011;10194;50.824;7.134;2023-02-28T09:09:09;283.93;;;262.13;;
20067;SDS011;10194;50.824;7.134;2023-02-28T09:11:35;282.27;;;260.43;;
20067;SDS011;10194;50.824;7.134;2023-02-28T09:14:01;283.13;;;261.40;;
20067;SDS011;10194;50.824;7.134;2023-02-28T09:16:28;283.53;;;261.73;;
20067;SDS011;10194;50.824;7.134;2023-02-28T09:18:56;285.97;;;264.40;;
20067;SDS011;10194;50.824;7.134;2023-02-28T09:21:22;281.37;;;259.87;;
20067;SDS011;10194;50.824;7.134;2023-02-28T09:23:49;287.73;;;265.73;;
20067;SDS011;10194;50.824;7.134;2023-02-28T09:26:25;282.93;;;261.53;;
20067;SDS011;10194;50.824;7.134;2023-02-28T09:28:53;282.37;;;260.83;;
20067;SDS011;10194;50.824;7.134;2023-02-28T09:31:23;281.17;;;259.47;;
20067;SDS011;10194;50.824;7.134;2023-02-28T09:33:56;285.23;;;262.80;;
20067;SDS011;10194;50.824;7.134;2023-02-28T09:36:24;288.67;;;266.70;;
20067;SDS011;10194;50.824;7.134;2023-02-28T09:38:51;284.47;;;262.77;;
20067;SDS011;10194;50.824;7.134;2023-02-28T09:41:24;282.93;;;261.50;;
20067;SDS011;10194;50.824;7.134;2023-02-28T09:43:57;283.17;;;261.63;;
20067;SDS011;10194;50.824;7.134;2023-02-28T09:46:44;287.27;;;265.30;;
20067;SDS011;10194;50.824;7.134;2023-02-28T09:49:14;284.63;;;262.90;;
20067;SDS011;10194;50.824;7.134;2023-02-28T09:51:59;283.60;;;261.67;;
20067;SDS011;10194;50.824;7.134;2023-02-28T09:54:34;285.00;;;263.13;;
20067;SDS011;10194;50.824;7.134;2023-02-28T09:59:48;283.37;;;261.67;;
20067;SDS011;10194;50.824;7.134;2023-02-28T10:06:14;286.10;;;264.47;;
20067;SDS011;10194;50.824;7.134;2023-02-28T10:09:03;286.43;;;264.53;;
20067;SDS011;10194;50.824;7.134;2023-02-28T10:11:35;288.33;;;266.73;;
20067;SDS011;10194;50.824;7.134;2023-02-28T10:14:10;285.10;;;263.40;;
20067;SDS011;10194;50.824;7.134;2023-02-28T10:24:49;288.90;;;267.33;;
20067;SDS011;10194;50.824;7.134;2023-02-28T10:27:28;287.30;;;265.63;;
20067;SDS011;10194;50.824;7.134;2023-02-28T10:29:57;282.77;;;261.07;;
20067;SDS011;10194;50.824;7.134;2023-02-28T10:32:26;290.87;;;268.93;;
20067;SDS011;10194;50.824;7.134;2023-02-28T10:37:44;284.03;;;262.53;;
20067;SDS011;10194;50.824;7.134;2023-02-28T10:42:57;290.20;;;268.60;;
20067;SDS011;10194;50.824;7.134;2023-02-28T10:45:26;286.03;;;264.37;;
20067;SDS011;10194;50.824;7.134;2023-02-28T10:47:56;290.00;;;268.30;;
20067;SDS011;10194;50.824;7.134;2023-02-28T10:50:37;294.53;;;272.83;;
20067;SDS011;10194;50.824;7.134;2023-02-28T11:01:23;300.27;;;277.80;;
20067;SDS011;10194;50.824;7.134;2023-02-28T11:04:01;299.40;;;277.00;;
20067;SDS011;10194;50.824;7.134;2023-02-28T11:06:31;295.27;;;273.63;;
20067;SDS011;10194;50.824;7.134;2023-02-28T11:08:59;295.77;;;274.17;;
20067;SDS011;10194;50.824;7.134;2023-02-28T11:11:54;298.13;;;276.10;;
20067;SDS011;10194;50.824;7.134;2023-02-28T11:14:27;296.77;;;275.30;;
20067;SDS011;10194;50.824;7.134;2023-02-28T11:16:58;294.97;;;273.17;;
20067;SDS011;10194;50.824;7.134;2023-02-28T11:19:45;291.53;;;269.73;;
20067;SDS011;10194;50.824;7.134;2023-02-28T11:22:20;298.00;;;276.10;;
20067;SDS011;10194;50.824;7.134;2023-02-28T11:24:53;302.07;;;279.87;;
20067;SDS011;10194;50.824;7.134;2023-02-28T11:29:57;306.93;;;284.43;;
20067;SDS011;10194;50.824;7.134;2023-02-28T11:32:25;305.60;;;283.37;;
20067;SDS011;10194;50.824;7.134;2023-02-28T11:35:04;307.33;;;284.70;;
20067;SDS011;10194;50.824;7.134;2023-02-28T11:37:37;305.50;;;283.30;;
20067;SDS011;10194;50.824;7.134;2023-02-28T11:40:28;307.23;;;284.33;;
20067;SDS011;10194;50.824;7.134;2023-02-28T11:45:45;307.73;;;285.20;;
20067;SDS011;10194;50.824;7.134;2023-02-28T11:52:28;301.40;;;278.90;;
20067;SDS011;10194;50.824;7.134;2023-02-28T12:01:22;302.50;;;279.70;;
20067;SDS011;10194;50.824;7.134;2023-02-28T12:07:35;295.37;;;273.03;;
20067;SDS011;10194;50.824;7.134;2023-02-28T12:12:56;302.40;;;279.00;;
20067;SDS011;10194;50.824;7.134;2023-02-28T12:15:39;299.27;;;276.20;;
20067;SDS011;10194;50.824;7.134;2023-02-28T12:18:40;303.30;;;280.57;;
20067;SDS011;10194;50.824;7.134;2023-02-28T12:22:10;301.33;;;278.53;;
20067;SDS011;10194;50.824;7.134;2023-02-28T12:27:41;293.83;;;270.60;;
20067;SDS011;10194;50.824;7.134;2023-02-28T12:32:57;299.30;;;276.00;;
20067;SDS011;10194;50.824;7.134;2023-02-28T12:35:32;296.53;;;274.33;;
20067;SDS011;10194;50.824;7.134;2023-02-28T12:38:10;304.13;;;281.43;;
20067;SDS011;10194;50.824;7.134;2023-02-28T12:40:50;300.93;;;277.27;;
20067;SDS011;10194;50.824;7.134;2023-02-28T12:43:37;296.77;;;273.30;;
20067;SDS011;10194;50.824;7.134;2023-02-28T12:48:43;290.50;;;266.90;;
20067;SDS011;10194;50.824;7.134;2023-02-28T12:51:13;292.53;;;269.00;;
20067;SDS011;10194;50.824;7.134;2023-02-28T12:56:49;297.00;;;274.17;;
20067;SDS011;10194;50.824;7.134;2023-02-28T12:59:39;294.20;;;271.20;;
20067;SDS011;10194;50.824;7.134;2023-02-28T13:08:31;298.87;;;276.17;;
20067;SDS011;10194;50.824;7.134;2023-02-28T13:11:31;303.13;;;280.07;;
20067;SDS011;10194;50.824;7.134;2023-02-28T13:19:20;307.83;;;283.67;;
20067;SDS011;10194;50.824;7.134;2023-02-28T13:21:48;295.13;;;272.03;;
20067;SDS011;10194;50.824;7.134;2023-02-28T13:27:10;295.40;;;272.53;;
20067;SDS011;10194;50.824;7.134;2023-02-28T13:29:50;302.63;;;278.87;;
20067;SDS011;10194;50.824;7.134;2023-02-28T13:39:57;283.93;;;260.33;;
20067;SDS011;10194;50.824;7.134;2023-02-28T13:50:31;288.20;;;264.03;;
20067;SDS011;10194;50.824;7.134;2023-02-28T13:58:43;284.20;;;260.67;;
20067;SDS011;10194;50.824;7.134;2023-02-28T14:04:56;288.30;;;264.50;;
20067;SDS011;10194;50.824;7.134;2023-02-28T14:07:32;287.50;;;263.40;;
20067;SDS011;10194;50.824;7.134;2023-02-28T14:10:18;286.90;;;261.63;;
20067;SDS011;10194;50.824;7.134;2023-02-28T14:12:53;281.57;;;256.87;;
20067;SDS011;10194;50.824;7.134;2023-02-28T14:18:14;288.97;;;264.07;;
20067;SDS011;10194;50.824;7.134;2023-02-28T14:20:57;280.17;;;255.53;;
20067;SDS011;10194;50.824;7.134;2023-02-28T14:34:53;280.27;;;255.43;;
20067;SDS011;10194;50.824;7.134;2023-02-28T14:37:55;281.07;;;256.63;;
20067;SDS011;10194;50.824;7.134;2023-02-28T14:40:24;281.23;;;256.27;;
20067;SDS011;10194;50.824;7.134;2023-02-28T14:43:03;278.33;;;253.43;;
20067;SDS011;10194;50.824;7.134;2023-02-28T14:45:32;284.63;;;259.80;;
20067;SDS011;10194;50.824;7.134;2023-02-28T14:48:01;281.80;;;257.37;;
20067;SDS011;10194;50.824;7.134;2023-02-28T14:50:31;281.67;;;256.67;;
20067;SDS011;10194;50.824;7.134;2023-02-28T14:53:00;277.77;;;253.10;;
20067;SDS011;10194;50.824;7.134;2023-02-28T14:55:31;274.10;;;249.73;;
20067;SDS011;10194;50.824;7.134;2023-02-28T14:58:04;282.30;;;257.37;;
20067;SDS011;10194;50.824;7.134;2023-02-28T15:00:35;282.13;;;257.10;;
20067;SDS011;10194;50.824;7.134;2023-02-28T15:03:20;278.10;;;253.47;;
20067;SDS011;10194;50.824;7.134;2023-02-28T15:06:01;280.80;;;256.20;;
20067;SDS011;10194;50.824;7.134;2023-02-28T15:08:38;281.70;;;256.60;;
20067;SDS011;10194;50.824;7.134;2023-02-28T15:11:05;280.07;;;255.13;;
20067;SDS011;10194;50.824;7.134;2023-02-28T15:13:40;278.13;;;253.30;;
20067;SDS011;10194;50.824;7.134;2023-02-28T15:16:12;281.03;;;256.23;;
20067;SDS011;10194;50.824;7.134;2023-02-28T15:18:47;277.77;;;252.87;;
20067;SDS011;10194;50.824;7.134;2023-02-28T15:21:15;277.67;;;252.87;;
20067;SDS011;10194;50.824;7.134;2023-02-28T15:23:45;276.40;;;252.00;;
20067;SDS011;10194;50.824;7.134;2023-02-28T15:26:47;279.93;;;255.60;;
20067;SDS011;10194;50.824;7.134;2023-02-28T15:29:26;279.83;;;255.27;;
20067;SDS011;10194;50.824;7.134;2023-02-28T15:32:01;273.00;;;248.87;;
20067;SDS011;10194;50.824;7.134;2023-02-28T15:34:37;277.50;;;253.10;;
20067;SDS011;10194;50.824;7.134;2023-02-28T15:37:25;275.90;;;251.23;;
20067;SDS011;10194;50.824;7.134;2023-02-28T15:40:17;279.90;;;255.10;;
20067;SDS011;10194;50.824;7.134;2023-02-28T15:43:00;284.73;;;260.43;;
20067;SDS011;10194;50.824;7.134;2023-02-28T15:45:48;283.60;;;258.97;;
20067;SDS011;10194;50.824;7.134;2023-02-28T15:50:55;282.40;;;257.93;;
20067;SDS011;10194;50.824;7.134;2023-02-28T15:53:28;283.17;;;258.07;;
20067;SDS011;10194;50.824;7.134;2023-02-28T15:56:06;277.33;;;253.13;;
20067;SDS011;10194;50.824;7.134;2023-02-28T15:58:58;274.87;;;250.40;;
20067;SDS011;10194;50.824;7.134;2023-02-28T16:03:59;277.00;;;252.53;;
20067;SDS011;10194;50.824;7.134;2023-02-28T16:06:42;280.93;;;256.47;;
20067;SDS011;10194;50.824;7.134;2023-02-28T16:09:18;280.57;;;256.03;;
20067;SDS011;10194;50.824;7.134;2023-02-28T16:11:45;276.77;;;252.73;;
20067;SDS011;10194;50.824;7.134;2023-02-28T16:14:15;275.63;;;251.37;;
20067;SDS011;10194;50.824;7.134;2023-02-28T16:16:49;280.30;;;255.23;;
20067;SDS011;10194;50.824;7.134;2023-02-28T16:19:18;281.13;;;256.93;;
20067;SDS011;10194;50.824;7.134;2023-02-28T16:21:46;286.20;;;262.00;;
20067;SDS011;10194;50.824;7.134;2023-02-28T16:24:12;282.40;;;258.30;;
20067;SDS011;10194;50.824;7.134;2023-02-28T16:26:41;274.70;;;250.23;;
20067;SDS011;10194;50.824;7.134;2023-02-28T16:29:13;279.03;;;254.50;;
20067;SDS011;10194;50.824;7.134;2023-02-28T16:31:50;277.70;;;253.67;;
20067;SDS011;10194;50.824;7.134;2023-02-28T16:34:16;277.27;;;252.70;;
20067;SDS011;10194;50.824;7.134;2023-02-28T16:36:42;277.57;;;252.60;;
20067;SDS011;10194;50.824;7.134;2023-02-28T16:39:12;281.83;;;257.27;;
20067;SDS011;10194;50.824;7.134;2023-02-28T16:41:38;275.73;;;251.53;;
20067;SDS011;10194;50.824;7.134;2023-02-28T16:44:10;278.27;;;254.07;;
20067;SDS011;10194;50.824;7.134;2023-02-28T16:46:46;273.20;;;248.93;;
20067;SDS011;10194;50.824;7.134;2023-02-28T16:49:12;278.80;;;254.77;;